createdAt,value
2017-09-08T00:00:15.108Z,0
2017-09-08T00:00:55.681Z,0
2017-09-08T00:01:36.246Z,0
2017-09-08T00:02:16.805Z,0
2017-09-08T00:02:57.360Z,0
2017-09-08T00:03:37.926Z,0
2017-09-08T00:04:18.485Z,0
2017-09-08T00:04:59.056Z,0
2017-09-08T00:05:39.633Z,0
2017-09-08T00:06:20.195Z,0
2017-09-08T00:07:00.772Z,0
2017-09-08T00:07:41.354Z,0
2017-09-08T00:08:22.078Z,0
2017-09-08T00:09:02.518Z,0
2017-09-08T00:09:43.077Z,0
2017-09-08T00:10:23.633Z,0
2017-09-08T00:11:04.194Z,0
2017-09-08T00:11:44.758Z,0
2017-09-08T00:12:25.328Z,0
2017-09-08T00:13:05.892Z,0
2017-09-08T00:13:46.475Z,0
2017-09-08T00:14:27.066Z,0
2017-09-08T00:15:07.634Z,0
2017-09-08T00:15:48.217Z,0
2017-09-08T00:16:28.748Z,0
2017-09-08T00:17:09.327Z,0
2017-09-08T00:17:49.894Z,0
2017-09-08T00:18:30.467Z,0
2017-09-08T00:19:11.039Z,0
2017-09-08T00:19:51.603Z,0
2017-09-08T00:20:32.178Z,0
2017-09-08T00:21:12.756Z,0
2017-09-08T00:21:53.316Z,0
2017-09-08T00:22:36.393Z,0
2017-09-08T00:23:16.967Z,0
2017-09-08T00:23:57.535Z,0
2017-09-08T00:24:38.105Z,0
2017-09-08T00:25:18.669Z,0
2017-09-08T00:25:59.225Z,0
2017-09-08T00:26:39.798Z,0
2017-09-08T00:27:20.366Z,0
2017-09-08T00:28:00.915Z,0
2017-09-08T00:28:41.489Z,0
2017-09-08T00:29:22.065Z,0
2017-09-08T00:30:02.634Z,0
2017-09-08T00:30:43.214Z,0
2017-09-08T00:31:23.779Z,0
2017-09-08T00:32:04.346Z,0
2017-09-08T00:32:44.937Z,0
2017-09-08T00:33:25.509Z,0
2017-09-08T00:34:06.084Z,0
2017-09-08T00:34:46.648Z,0
2017-09-08T00:35:27.279Z,0
2017-09-08T00:36:07.851Z,0
2017-09-08T00:36:48.454Z,0
2017-09-08T00:37:29.032Z,0
2017-09-08T00:38:09.609Z,0
2017-09-08T00:38:50.192Z,0
2017-09-08T00:39:30.789Z,0
2017-09-08T00:40:11.365Z,0
2017-09-08T00:40:51.934Z,0
2017-09-08T00:41:32.489Z,0
2017-09-08T00:42:13.066Z,0
2017-09-08T00:42:53.623Z,0
2017-09-08T00:43:34.195Z,0
2017-09-08T00:44:14.764Z,0
2017-09-08T00:44:55.326Z,0
2017-09-08T00:45:35.899Z,0
2017-09-08T00:46:16.456Z,0
2017-09-08T00:46:57.045Z,0
2017-09-08T00:47:37.611Z,0
2017-09-08T00:48:18.178Z,0
2017-09-08T00:48:58.729Z,0
2017-09-08T00:49:39.311Z,0
2017-09-08T00:50:19.899Z,0
2017-09-08T00:51:00.492Z,0
2017-09-08T00:51:41.083Z,0
2017-09-08T00:52:21.670Z,0
2017-09-08T00:53:02.266Z,0
2017-09-08T00:53:42.836Z,0
2017-09-08T00:54:23.390Z,0
2017-09-08T00:55:03.954Z,0
2017-09-08T00:55:44.519Z,0
2017-09-08T00:56:25.083Z,0
2017-09-08T00:57:05.635Z,0
2017-09-08T00:57:46.248Z,0
2017-09-08T00:58:26.822Z,0
2017-09-08T00:59:07.430Z,0
2017-09-08T00:59:47.993Z,0
2017-09-08T01:00:28.569Z,0
2017-09-08T01:01:09.154Z,0
2017-09-08T01:01:49.741Z,0
2017-09-08T01:02:30.313Z,0
2017-09-08T01:03:10.876Z,0
2017-09-08T01:03:51.442Z,0
2017-09-08T01:04:32.016Z,0
2017-09-08T01:05:12.589Z,0
2017-09-08T01:05:53.153Z,0
2017-09-08T01:06:33.735Z,0
2017-09-08T01:07:14.307Z,0
2017-09-08T01:07:54.871Z,0
2017-09-08T01:08:35.450Z,0
2017-09-08T01:09:16.029Z,0
2017-09-08T01:09:56.620Z,0
2017-09-08T01:10:37.168Z,0
2017-09-08T01:11:17.746Z,0
2017-09-08T01:11:58.317Z,0
2017-09-08T01:12:38.908Z,0
2017-09-08T01:13:19.468Z,0
2017-09-08T01:14:00.036Z,0
2017-09-08T01:14:40.606Z,0
2017-09-08T01:15:21.187Z,0
2017-09-08T01:16:01.793Z,0
2017-09-08T01:16:42.354Z,0
2017-09-08T01:17:22.935Z,0
2017-09-08T01:18:03.512Z,0
2017-09-08T01:18:44.076Z,0
2017-09-08T01:19:24.640Z,0
2017-09-08T01:20:05.210Z,0
2017-09-08T01:20:45.821Z,0
2017-09-08T01:21:26.390Z,0
2017-09-08T01:22:06.971Z,0
2017-09-08T01:22:47.554Z,0
2017-09-08T01:23:28.128Z,0
2017-09-08T01:24:08.744Z,0
2017-09-08T01:24:49.313Z,0
2017-09-08T01:25:29.882Z,0
2017-09-08T01:26:10.495Z,0
2017-09-08T01:26:51.085Z,0
2017-09-08T01:27:31.677Z,0
2017-09-08T01:28:12.252Z,0
2017-09-08T01:28:52.821Z,0
2017-09-08T01:29:33.379Z,0
2017-09-08T01:30:13.939Z,0
2017-09-08T01:30:54.534Z,0
2017-09-08T01:31:35.101Z,0
2017-09-08T01:32:15.666Z,0
2017-09-08T01:32:56.244Z,0
2017-09-08T01:33:36.839Z,0
2017-09-08T01:34:17.396Z,0
2017-09-08T01:34:57.962Z,0
2017-09-08T01:35:38.515Z,0
2017-09-08T01:36:19.079Z,0
2017-09-08T01:36:59.649Z,0
2017-09-08T01:37:40.206Z,0
2017-09-08T01:38:20.812Z,0
2017-09-08T01:39:01.384Z,0
2017-09-08T01:39:41.948Z,0
2017-09-08T01:40:22.514Z,0
2017-09-08T01:41:03.083Z,0
2017-09-08T01:41:43.646Z,0
2017-09-08T01:42:24.216Z,0
2017-09-08T01:43:04.779Z,0
2017-09-08T01:43:45.358Z,0
2017-09-08T01:44:25.950Z,0
2017-09-08T01:45:06.511Z,0
2017-09-08T01:45:47.085Z,0
2017-09-08T01:46:27.658Z,0
2017-09-08T01:47:08.230Z,0
2017-09-08T01:47:48.801Z,0
2017-09-08T01:48:29.359Z,0
2017-09-08T01:49:09.943Z,0
2017-09-08T01:49:50.505Z,0
2017-09-08T01:50:31.068Z,0
2017-09-08T01:51:11.629Z,0
2017-09-08T01:51:52.214Z,0
2017-09-08T01:52:32.805Z,0
2017-09-08T01:53:13.348Z,0
2017-09-08T01:53:53.931Z,0
2017-09-08T01:54:34.523Z,0
2017-09-08T01:55:15.086Z,0
2017-09-08T01:55:55.654Z,0
2017-09-08T01:56:36.222Z,0
2017-09-08T01:57:16.781Z,0
2017-09-08T01:57:57.349Z,0
2017-09-08T01:58:37.925Z,0
2017-09-08T01:59:18.504Z,0
2017-09-08T01:59:59.099Z,0
2017-09-08T02:00:39.651Z,0
2017-09-08T02:01:20.223Z,0
2017-09-08T02:02:00.777Z,0
2017-09-08T02:02:41.375Z,0
2017-09-08T02:03:21.937Z,0
2017-09-08T02:04:02.509Z,0
2017-09-08T02:04:43.066Z,0
2017-09-08T02:05:23.624Z,0
2017-09-08T02:06:04.236Z,0
2017-09-08T02:06:44.794Z,0
2017-09-08T02:07:25.369Z,0
2017-09-08T02:08:05.959Z,0
2017-09-08T02:08:46.535Z,0
2017-09-08T02:09:27.097Z,0
2017-09-08T02:10:07.661Z,0
2017-09-08T02:10:48.232Z,0
2017-09-08T02:11:28.822Z,0
2017-09-08T02:12:09.390Z,0
2017-09-08T02:12:49.980Z,0
2017-09-08T02:13:30.538Z,0
2017-09-08T02:14:11.100Z,0
2017-09-08T02:14:51.673Z,0
2017-09-08T02:15:32.244Z,0
2017-09-08T02:16:12.850Z,0
2017-09-08T02:16:53.432Z,0
2017-09-08T02:17:34.011Z,0
2017-09-08T02:18:14.595Z,0
2017-09-08T02:18:55.156Z,0
2017-09-08T02:19:35.739Z,0
2017-09-08T02:20:16.325Z,0
2017-09-08T02:20:56.878Z,0
2017-09-08T02:21:37.447Z,0
2017-09-08T02:22:18.083Z,0
2017-09-08T02:22:58.664Z,0
2017-09-08T02:23:39.238Z,0
2017-09-08T02:24:19.811Z,0
2017-09-08T02:25:00.379Z,0
2017-09-08T02:25:40.973Z,0
2017-09-08T02:26:21.568Z,0
2017-09-08T02:27:02.140Z,0
2017-09-08T02:27:42.699Z,0
2017-09-08T02:28:23.262Z,0
2017-09-08T02:29:03.824Z,0
2017-09-08T02:29:44.398Z,0
2017-09-08T02:30:24.958Z,0
2017-09-08T02:31:05.535Z,0
2017-09-08T02:31:46.114Z,0
2017-09-08T02:32:26.718Z,0
2017-09-08T02:33:07.273Z,0
2017-09-08T02:33:47.844Z,0
2017-09-08T02:34:28.517Z,0
2017-09-08T02:35:09.089Z,0
2017-09-08T02:35:49.657Z,0
2017-09-08T02:36:30.232Z,0
2017-09-08T02:37:10.801Z,0
2017-09-08T02:37:51.374Z,0
2017-09-08T02:38:31.944Z,0
2017-09-08T02:39:12.513Z,0
2017-09-08T02:39:53.081Z,0
2017-09-08T02:40:33.685Z,0
2017-09-08T02:41:14.274Z,0
2017-09-08T02:41:54.855Z,0
2017-09-08T02:42:35.410Z,0
2017-09-08T02:43:15.970Z,0
2017-09-08T02:43:56.551Z,0
2017-09-08T02:44:37.118Z,0
2017-09-08T02:45:17.704Z,0
2017-09-08T02:45:58.257Z,0
2017-09-08T02:46:38.831Z,0
2017-09-08T02:47:19.402Z,0
2017-09-08T02:47:59.970Z,0
2017-09-08T02:48:40.546Z,0
2017-09-08T02:49:21.082Z,0
2017-09-08T02:50:01.642Z,0
2017-09-08T02:50:42.231Z,0
2017-09-08T02:51:22.799Z,0
2017-09-08T02:52:03.396Z,0
2017-09-08T02:52:43.971Z,0
2017-09-08T02:53:24.571Z,0
2017-09-08T02:54:05.179Z,0
2017-09-08T02:54:45.768Z,0
2017-09-08T02:55:26.392Z,0
2017-09-08T02:56:06.902Z,0
2017-09-08T02:56:47.478Z,0
2017-09-08T02:57:28.028Z,0
2017-09-08T02:58:08.590Z,0
2017-09-08T02:58:49.157Z,0
2017-09-08T02:59:29.723Z,0
2017-09-08T03:00:10.313Z,0
2017-09-08T03:00:50.903Z,0
2017-09-08T03:01:31.513Z,0
2017-09-08T03:02:12.096Z,0
2017-09-08T03:02:52.670Z,0
2017-09-08T03:03:33.252Z,0
2017-09-08T03:04:13.874Z,0
2017-09-08T03:04:54.564Z,0
2017-09-08T03:05:35.146Z,0
2017-09-08T03:06:15.752Z,0
2017-09-08T03:06:56.332Z,0
2017-09-08T03:07:36.920Z,0
2017-09-08T03:08:17.480Z,0
2017-09-08T03:08:58.069Z,0
2017-09-08T03:09:38.635Z,0
2017-09-08T03:10:19.207Z,0
2017-09-08T03:10:59.767Z,0
2017-09-08T03:11:40.323Z,0
2017-09-08T03:12:20.892Z,0
2017-09-08T03:13:01.475Z,0
2017-09-08T03:13:42.049Z,0
2017-09-08T03:14:22.668Z,0
2017-09-08T03:15:03.258Z,0
2017-09-08T03:15:43.806Z,0
2017-09-08T03:16:24.381Z,0
2017-09-08T03:17:04.965Z,0
2017-09-08T03:17:45.550Z,0
2017-09-08T03:18:26.116Z,0
2017-09-08T03:19:06.686Z,0
2017-09-08T03:19:47.255Z,0
2017-09-08T03:20:27.823Z,0
2017-09-08T03:21:08.382Z,0
2017-09-08T03:21:48.956Z,0
2017-09-08T03:22:29.546Z,0
2017-09-08T03:23:10.110Z,0
2017-09-08T03:23:50.732Z,0
2017-09-08T03:24:31.320Z,0
2017-09-08T03:25:11.929Z,0
2017-09-08T03:25:52.474Z,0
2017-09-08T03:26:33.037Z,0
2017-09-08T03:27:13.603Z,0
2017-09-08T03:27:54.163Z,0
2017-09-08T03:28:34.732Z,0
2017-09-08T03:29:15.325Z,0
2017-09-08T03:29:55.904Z,0
2017-09-08T03:30:36.470Z,0
2017-09-08T03:31:17.041Z,0
2017-09-08T03:31:57.648Z,0
2017-09-08T03:32:38.219Z,0
2017-09-08T03:33:18.780Z,0
2017-09-08T03:33:59.401Z,0
2017-09-08T03:34:39.965Z,0
2017-09-08T03:35:20.552Z,0
2017-09-08T03:36:01.138Z,0
2017-09-08T03:36:41.720Z,0
2017-09-08T03:37:22.282Z,0
2017-09-08T03:38:02.860Z,0
2017-09-08T03:38:43.423Z,0
2017-09-08T03:39:24.011Z,0
2017-09-08T03:40:04.578Z,0
2017-09-08T03:40:45.186Z,0
2017-09-08T03:41:25.752Z,0
2017-09-08T03:42:06.390Z,0
2017-09-08T03:42:46.932Z,0
2017-09-08T03:43:27.503Z,0
2017-09-08T03:44:08.059Z,0
2017-09-08T03:44:48.644Z,0
2017-09-08T03:45:29.204Z,0
2017-09-08T03:46:09.809Z,0
2017-09-08T03:46:50.373Z,0
2017-09-08T03:47:30.938Z,0
2017-09-08T03:48:11.547Z,0
2017-09-08T03:48:52.117Z,0
2017-09-08T03:49:32.675Z,0
2017-09-08T03:50:13.233Z,0
2017-09-08T03:50:53.795Z,0
2017-09-08T03:51:34.370Z,0
2017-09-08T03:52:14.942Z,0
2017-09-08T03:52:55.521Z,0
2017-09-08T03:53:36.112Z,0
2017-09-08T03:54:16.668Z,0
2017-09-08T03:54:57.244Z,0
2017-09-08T03:55:37.809Z,0
2017-09-08T03:56:18.383Z,0
2017-09-08T03:56:58.963Z,0
2017-09-08T03:57:39.561Z,0
2017-09-08T03:58:20.157Z,0
2017-09-08T03:59:00.728Z,0
2017-09-08T03:59:41.299Z,0
2017-09-08T04:00:21.920Z,0
2017-09-08T04:01:02.539Z,0
2017-09-08T04:01:43.114Z,0
2017-09-08T04:02:23.686Z,0
2017-09-08T04:03:04.272Z,0
2017-09-08T04:03:44.826Z,0
2017-09-08T04:04:25.404Z,0
2017-09-08T04:05:05.966Z,0
2017-09-08T04:05:46.547Z,0
2017-09-08T04:06:27.128Z,0
2017-09-08T04:07:07.700Z,0
2017-09-08T04:07:48.271Z,0
2017-09-08T04:08:28.885Z,0
2017-09-08T04:09:09.461Z,0
2017-09-08T04:09:50.040Z,0
2017-09-08T04:10:30.613Z,0
2017-09-08T04:11:11.179Z,0
2017-09-08T04:11:51.740Z,0
2017-09-08T04:12:32.332Z,0
2017-09-08T04:13:12.894Z,0
2017-09-08T04:13:53.481Z,0
2017-09-08T04:14:34.019Z,0
2017-09-08T04:15:14.616Z,0
2017-09-08T04:15:55.189Z,0
2017-09-08T04:16:35.759Z,0
2017-09-08T04:17:16.360Z,0
2017-09-08T04:17:56.913Z,0
2017-09-08T04:18:37.473Z,0
2017-09-08T04:19:18.041Z,0
2017-09-08T04:19:58.622Z,0
2017-09-08T04:20:39.182Z,0
2017-09-08T04:21:19.762Z,0
2017-09-08T04:22:00.327Z,0
2017-09-08T04:22:40.891Z,0
2017-09-08T04:23:21.445Z,0
2017-09-08T04:24:02.011Z,0
2017-09-08T04:24:42.612Z,0
2017-09-08T04:25:23.201Z,0
2017-09-08T04:26:03.778Z,0
2017-09-08T04:26:44.346Z,0
2017-09-08T04:27:24.946Z,0
2017-09-08T04:28:05.526Z,0
2017-09-08T04:28:46.084Z,0
2017-09-08T04:29:26.645Z,0
2017-09-08T04:30:07.252Z,0
2017-09-08T04:30:47.816Z,0
2017-09-08T04:31:28.401Z,0
2017-09-08T04:32:08.966Z,0
2017-09-08T04:32:49.542Z,0
2017-09-08T04:33:30.117Z,0
2017-09-08T04:34:10.686Z,0
2017-09-08T04:34:51.268Z,0
2017-09-08T04:35:31.846Z,0
2017-09-08T04:36:12.465Z,0
2017-09-08T04:36:53.054Z,0
2017-09-08T04:37:33.666Z,0
2017-09-08T04:38:14.224Z,0
2017-09-08T04:38:54.798Z,0
2017-09-08T04:39:35.397Z,0
2017-09-08T04:40:15.967Z,0
2017-09-08T04:40:56.537Z,0
2017-09-08T04:41:37.132Z,0
2017-09-08T04:42:17.721Z,0
2017-09-08T04:42:58.327Z,0
2017-09-08T04:43:38.905Z,0
2017-09-08T04:44:19.471Z,0
2017-09-08T04:45:00.042Z,0
2017-09-08T04:45:40.618Z,0
2017-09-08T04:46:21.206Z,0
2017-09-08T04:47:01.782Z,0
2017-09-08T04:47:42.393Z,0
2017-09-08T04:48:22.965Z,0
2017-09-08T04:49:03.532Z,0
2017-09-08T04:49:44.099Z,0
2017-09-08T04:50:24.704Z,0
2017-09-08T04:51:05.257Z,0
2017-09-08T04:51:45.842Z,0
2017-09-08T04:52:26.412Z,0
2017-09-08T04:53:06.991Z,0
2017-09-08T04:53:47.573Z,0
2017-09-08T04:54:28.144Z,0
2017-09-08T04:55:08.704Z,0
2017-09-08T04:55:49.267Z,0
2017-09-08T04:56:29.825Z,0
2017-09-08T04:57:10.381Z,0
2017-09-08T04:57:50.954Z,0
2017-09-08T04:58:31.548Z,0
2017-09-08T04:59:12.111Z,0
2017-09-08T04:59:52.678Z,0
2017-09-08T05:00:33.267Z,0
2017-09-08T05:01:13.811Z,0
2017-09-08T05:01:54.379Z,0
2017-09-08T05:02:34.948Z,0
2017-09-08T05:03:15.514Z,0
2017-09-08T05:03:56.080Z,0
2017-09-08T05:04:36.676Z,0
2017-09-08T05:05:17.263Z,0
2017-09-08T05:05:57.849Z,0
2017-09-08T05:06:38.408Z,0
2017-09-08T05:07:18.979Z,0
2017-09-08T05:07:59.537Z,0
2017-09-08T05:08:40.091Z,5
2017-09-08T05:09:20.666Z,5
2017-09-08T05:10:01.230Z,5
2017-09-08T05:10:41.793Z,5
2017-09-08T05:11:22.350Z,5
2017-09-08T05:12:02.938Z,5
2017-09-08T05:12:43.503Z,5
2017-09-08T05:13:24.071Z,5
2017-09-08T05:14:04.637Z,5
2017-09-08T05:14:45.209Z,5
2017-09-08T05:15:25.784Z,5
2017-09-08T05:16:06.340Z,5
2017-09-08T05:16:46.922Z,5
2017-09-08T05:17:27.507Z,5
2017-09-08T05:18:08.064Z,5
2017-09-08T05:18:48.621Z,5
2017-09-08T05:19:29.186Z,5
2017-09-08T05:20:09.775Z,5
2017-09-08T05:20:50.369Z,5
2017-09-08T05:21:30.926Z,5
2017-09-08T05:22:11.492Z,5
2017-09-08T05:22:52.055Z,5
2017-09-08T05:23:32.640Z,5
2017-09-08T05:24:13.223Z,5
2017-09-08T05:24:53.808Z,5
2017-09-08T05:25:34.380Z,5
2017-09-08T05:26:14.952Z,5
2017-09-08T05:26:55.532Z,5
2017-09-08T05:27:36.099Z,5
2017-09-08T05:28:16.683Z,5
2017-09-08T05:28:57.267Z,5
2017-09-08T05:29:37.838Z,5
2017-09-08T05:30:18.396Z,5
2017-09-08T05:30:58.979Z,5
2017-09-08T05:31:39.572Z,5
2017-09-08T05:32:20.136Z,5
2017-09-08T05:33:00.712Z,5
2017-09-08T05:33:41.276Z,5
2017-09-08T05:34:21.851Z,5
2017-09-08T05:35:02.416Z,10
2017-09-08T05:35:42.987Z,10
2017-09-08T05:36:23.566Z,10
2017-09-08T05:37:04.129Z,10
2017-09-08T05:37:44.705Z,10
2017-09-08T05:38:25.269Z,10
2017-09-08T05:39:05.924Z,10
2017-09-08T05:39:46.489Z,10
2017-09-08T05:40:27.047Z,10
2017-09-08T05:41:07.615Z,10
2017-09-08T05:41:48.175Z,10
2017-09-08T05:42:28.739Z,10
2017-09-08T05:43:09.353Z,10
2017-09-08T05:43:49.946Z,10
2017-09-08T05:44:30.516Z,10
2017-09-08T05:45:11.089Z,10
2017-09-08T05:45:51.651Z,10
2017-09-08T05:46:32.228Z,10
2017-09-08T05:47:12.805Z,10
2017-09-08T05:47:53.423Z,10
2017-09-08T05:48:33.982Z,10
2017-09-08T05:49:14.551Z,10
2017-09-08T05:49:55.133Z,10
2017-09-08T05:50:35.717Z,10
2017-09-08T05:51:16.312Z,10
2017-09-08T05:51:57.245Z,10
2017-09-08T05:52:37.800Z,10
2017-09-08T05:53:18.366Z,10
2017-09-08T05:53:58.941Z,10
2017-09-08T05:54:39.626Z,10
2017-09-08T05:55:20.092Z,10
2017-09-08T05:56:00.674Z,10
2017-09-08T05:56:41.230Z,10
2017-09-08T05:57:22.025Z,10
2017-09-08T05:58:02.601Z,10
2017-09-08T05:58:43.182Z,15
2017-09-08T05:59:23.748Z,15
2017-09-08T06:00:04.371Z,15
2017-09-08T06:00:45.022Z,15
2017-09-08T06:01:25.593Z,15
2017-09-08T06:02:06.345Z,20
2017-09-08T06:02:47.006Z,20
2017-09-08T06:03:28.083Z,20
2017-09-08T06:04:08.773Z,20
2017-09-08T06:04:49.393Z,20
2017-09-08T06:05:30.045Z,25
2017-09-08T06:06:10.659Z,25
2017-09-08T06:06:51.247Z,25
2017-09-08T06:07:31.815Z,25
2017-09-08T06:08:12.414Z,30
2017-09-08T06:08:53.081Z,30
2017-09-08T06:09:33.642Z,30
2017-09-08T06:10:14.361Z,25
2017-09-08T06:10:55.078Z,25
2017-09-08T06:11:35.632Z,25
2017-09-08T06:12:16.182Z,25
2017-09-08T06:12:56.754Z,25
2017-09-08T06:13:37.312Z,20
2017-09-08T06:14:17.885Z,20
2017-09-08T06:14:58.484Z,20
2017-09-08T06:15:39.077Z,20
2017-09-08T06:16:19.638Z,20
2017-09-08T06:17:00.203Z,15
2017-09-08T06:17:40.820Z,15
2017-09-08T06:18:21.394Z,15
2017-09-08T06:19:01.978Z,15
2017-09-08T06:19:42.577Z,15
2017-09-08T06:20:23.155Z,20
2017-09-08T06:21:03.736Z,20
2017-09-08T06:21:44.332Z,20
2017-09-08T06:22:24.955Z,20
2017-09-08T06:23:05.518Z,25
2017-09-08T06:23:46.088Z,25
2017-09-08T06:24:26.857Z,25
2017-09-08T06:25:07.411Z,25
2017-09-08T06:25:48.029Z,25
2017-09-08T06:26:28.657Z,25
2017-09-08T06:27:09.365Z,25
2017-09-08T06:27:50.810Z,30
2017-09-08T06:28:31.703Z,30
2017-09-08T06:29:12.309Z,30
2017-09-08T06:29:52.920Z,35
2017-09-08T06:30:33.480Z,35
2017-09-08T06:31:14.043Z,40
2017-09-08T06:31:54.852Z,40
2017-09-08T06:32:35.433Z,40
2017-09-08T06:33:16.153Z,40
2017-09-08T06:33:56.719Z,40
2017-09-08T06:34:37.326Z,40
2017-09-08T06:35:18.266Z,40
2017-09-08T06:35:58.839Z,40
2017-09-08T06:36:39.543Z,40
2017-09-08T06:37:20.132Z,40
2017-09-08T06:38:00.851Z,40
2017-09-08T06:38:41.420Z,40
2017-09-08T06:39:21.976Z,40
2017-09-08T06:40:02.553Z,40
2017-09-08T06:40:43.449Z,40
2017-09-08T06:41:24.008Z,40
2017-09-08T06:42:04.770Z,40
2017-09-08T06:42:45.344Z,40
2017-09-08T06:43:26.132Z,40
2017-09-08T06:44:06.760Z,40
2017-09-08T06:44:47.321Z,40
2017-09-08T06:45:27.875Z,40
2017-09-08T06:46:08.463Z,35
2017-09-08T06:46:49.036Z,35
2017-09-08T06:47:29.606Z,35
2017-09-08T06:48:10.172Z,35
2017-09-08T06:48:50.745Z,30
2017-09-08T06:49:31.321Z,30
2017-09-08T06:50:11.897Z,30
2017-09-08T06:50:52.576Z,30
2017-09-08T06:51:33.192Z,30
2017-09-08T06:52:13.774Z,30
2017-09-08T06:52:54.441Z,30
2017-09-08T06:53:35.133Z,30
2017-09-08T06:54:15.704Z,35
2017-09-08T06:54:56.268Z,35
2017-09-08T06:55:36.843Z,35
2017-09-08T06:56:17.459Z,35
2017-09-08T06:56:58.051Z,35
2017-09-08T06:57:38.606Z,35
2017-09-08T06:58:19.175Z,35
2017-09-08T06:58:59.764Z,35
2017-09-08T06:59:40.337Z,35
2017-09-08T07:00:20.916Z,35
2017-09-08T07:01:01.479Z,35
2017-09-08T07:01:42.077Z,35
2017-09-08T07:02:22.637Z,35
2017-09-08T07:03:03.224Z,35
2017-09-08T07:03:43.776Z,35
2017-09-08T07:04:24.360Z,35
2017-09-08T07:05:04.935Z,40
2017-09-08T07:05:45.496Z,40
2017-09-08T07:06:26.065Z,40
2017-09-08T07:07:06.662Z,45
2017-09-08T07:07:47.309Z,45
2017-09-08T07:08:27.867Z,45
2017-09-08T07:09:08.432Z,45
2017-09-08T07:09:49.015Z,45
2017-09-08T07:10:29.596Z,45
2017-09-08T07:11:10.164Z,45
2017-09-08T07:11:50.753Z,45
2017-09-08T07:12:31.332Z,45
2017-09-08T07:13:11.893Z,45
2017-09-08T07:13:52.451Z,45
2017-09-08T07:14:33.051Z,50
2017-09-08T07:15:13.885Z,50
2017-09-08T07:15:54.472Z,50
2017-09-08T07:16:35.043Z,55
2017-09-08T07:17:15.653Z,55
2017-09-08T07:17:56.205Z,55
2017-09-08T07:18:36.893Z,55
2017-09-08T07:19:17.457Z,60
2017-09-08T07:19:58.059Z,60
2017-09-08T07:20:38.638Z,65
2017-09-08T07:21:19.221Z,75
2017-09-08T07:22:00.157Z,80
2017-09-08T07:22:40.728Z,90
2017-09-08T07:23:21.363Z,90
2017-09-08T07:24:01.940Z,95
2017-09-08T07:24:42.527Z,95
2017-09-08T07:25:23.096Z,95
2017-09-08T07:26:03.663Z,95
2017-09-08T07:26:44.232Z,90
2017-09-08T07:27:24.814Z,80
2017-09-08T07:28:05.380Z,75
2017-09-08T07:28:45.948Z,75
2017-09-08T07:29:26.519Z,75
2017-09-08T07:30:07.109Z,75
2017-09-08T07:30:47.697Z,75
2017-09-08T07:31:28.259Z,75
2017-09-08T07:32:08.821Z,80
2017-09-08T07:32:49.387Z,80
2017-09-08T07:33:29.968Z,85
2017-09-08T07:34:10.541Z,85
2017-09-08T07:34:51.107Z,95
2017-09-08T07:35:31.742Z,95
2017-09-08T07:36:12.351Z,105
2017-09-08T07:36:52.958Z,110
2017-09-08T07:37:33.549Z,115
2017-09-08T07:38:14.135Z,115
2017-09-08T07:38:54.736Z,115
2017-09-08T07:39:35.296Z,115
2017-09-08T07:40:15.888Z,115
2017-09-08T07:40:56.518Z,120
2017-09-08T07:41:37.127Z,130
2017-09-08T07:42:17.720Z,150
2017-09-08T07:42:58.288Z,150
2017-09-08T07:43:38.883Z,145
2017-09-08T07:44:19.472Z,135
2017-09-08T07:45:00.053Z,130
2017-09-08T07:45:40.662Z,125
2017-09-08T07:46:21.277Z,120
2017-09-08T07:47:01.847Z,115
2017-09-08T07:47:42.405Z,110
2017-09-08T07:48:23.005Z,105
2017-09-08T07:49:03.575Z,100
2017-09-08T07:49:44.148Z,100
2017-09-08T07:50:24.722Z,100
2017-09-08T07:51:05.293Z,105
2017-09-08T07:51:45.873Z,105
2017-09-08T07:52:26.446Z,105
2017-09-08T07:53:07.003Z,100
2017-09-08T07:53:47.563Z,95
2017-09-08T07:54:28.153Z,95
2017-09-08T07:55:08.719Z,95
2017-09-08T07:55:49.334Z,100
2017-09-08T07:56:29.876Z,110
2017-09-08T07:57:10.460Z,120
2017-09-08T07:57:51.031Z,125
2017-09-08T07:58:31.614Z,135
2017-09-08T07:59:12.179Z,140
2017-09-08T07:59:52.747Z,140
2017-09-08T08:00:33.327Z,135
2017-09-08T08:01:13.933Z,110
2017-09-08T08:01:54.508Z,110
2017-09-08T08:02:35.072Z,105
2017-09-08T08:03:15.638Z,115
2017-09-08T08:03:56.232Z,120
2017-09-08T08:04:36.787Z,115
2017-09-08T08:05:17.358Z,110
2017-09-08T08:05:57.950Z,110
2017-09-08T08:06:38.559Z,105
2017-09-08T08:07:19.128Z,100
2017-09-08T08:07:59.695Z,95
2017-09-08T08:08:40.279Z,95
2017-09-08T08:09:20.840Z,95
2017-09-08T08:10:01.401Z,95
2017-09-08T08:10:41.971Z,90
2017-09-08T08:11:22.536Z,90
2017-09-08T08:12:03.159Z,90
2017-09-08T08:12:43.728Z,95
2017-09-08T08:13:24.314Z,95
2017-09-08T08:14:04.897Z,95
2017-09-08T08:14:45.465Z,100
2017-09-08T08:15:26.074Z,100
2017-09-08T08:16:06.650Z,105
2017-09-08T08:16:47.212Z,105
2017-09-08T08:17:27.778Z,105
2017-09-08T08:18:08.355Z,105
2017-09-08T08:18:48.956Z,110
2017-09-08T08:19:29.520Z,110
2017-09-08T08:20:10.093Z,110
2017-09-08T08:20:50.657Z,115
2017-09-08T08:21:31.239Z,110
2017-09-08T08:22:11.799Z,110
2017-09-08T08:22:52.359Z,105
2017-09-08T08:23:32.916Z,100
2017-09-08T08:24:13.484Z,95
2017-09-08T08:24:54.060Z,85
2017-09-08T08:25:34.645Z,75
2017-09-08T08:26:15.235Z,70
2017-09-08T08:26:55.792Z,60
2017-09-08T08:27:36.354Z,55
2017-09-08T08:28:16.917Z,50
2017-09-08T08:28:57.477Z,50
2017-09-08T08:29:38.052Z,50
2017-09-08T08:30:18.620Z,50
2017-09-08T08:30:59.186Z,50
2017-09-08T08:31:39.757Z,50
2017-09-08T08:32:20.315Z,50
2017-09-08T08:33:00.887Z,45
2017-09-08T08:33:41.453Z,50
2017-09-08T08:34:22.037Z,50
2017-09-08T08:35:02.604Z,50
2017-09-08T08:35:43.166Z,55
2017-09-08T08:36:23.727Z,55
2017-09-08T08:37:04.350Z,60
2017-09-08T08:37:44.929Z,60
2017-09-08T08:38:25.480Z,65
2017-09-08T08:39:06.044Z,70
2017-09-08T08:39:46.617Z,70
2017-09-08T08:40:27.202Z,75
2017-09-08T08:41:07.778Z,85
2017-09-08T08:41:48.349Z,85
2017-09-08T08:42:28.917Z,90
2017-09-08T08:43:09.473Z,95
2017-09-08T08:43:50.042Z,95
2017-09-08T08:44:30.597Z,90
2017-09-08T08:45:11.177Z,90
2017-09-08T08:45:51.748Z,85
2017-09-08T08:46:32.801Z,80
2017-09-08T08:47:13.370Z,80
2017-09-08T08:47:53.957Z,75
2017-09-08T08:48:34.707Z,70
2017-09-08T08:49:15.292Z,65
2017-09-08T08:49:55.869Z,65
2017-09-08T08:50:36.489Z,60
2017-09-08T08:51:17.061Z,55
2017-09-08T08:51:57.626Z,55
2017-09-08T08:52:38.295Z,55
2017-09-08T08:53:18.865Z,50
2017-09-08T08:53:59.422Z,50
2017-09-08T08:54:40.028Z,50
2017-09-08T08:55:20.666Z,50
2017-09-08T08:56:01.240Z,50
2017-09-08T08:56:41.793Z,50
2017-09-08T08:57:22.354Z,50
2017-09-08T08:58:02.928Z,50
2017-09-08T08:58:43.498Z,50
2017-09-08T08:59:24.071Z,50
2017-09-08T09:00:04.635Z,50
2017-09-08T09:00:45.199Z,50
2017-09-08T09:01:25.784Z,50
2017-09-08T09:02:06.396Z,50
2017-09-08T09:02:46.961Z,50
2017-09-08T09:03:27.577Z,50
2017-09-08T09:04:08.128Z,50
2017-09-08T09:04:48.771Z,55
2017-09-08T09:05:29.357Z,55
2017-09-08T09:06:09.935Z,55
2017-09-08T09:06:50.633Z,55
2017-09-08T09:07:31.210Z,55
2017-09-08T09:08:11.772Z,60
2017-09-08T09:08:52.400Z,60
2017-09-08T09:09:33.075Z,60
2017-09-08T09:10:13.617Z,60
2017-09-08T09:10:54.238Z,60
2017-09-08T09:11:34.816Z,60
2017-09-08T09:12:15.462Z,60
2017-09-08T09:12:56.052Z,60
2017-09-08T09:13:36.710Z,60
2017-09-08T09:14:17.267Z,60
2017-09-08T09:14:57.867Z,60
2017-09-08T09:15:38.420Z,55
2017-09-08T09:16:18.993Z,55
2017-09-08T09:16:59.672Z,55
2017-09-08T09:17:40.227Z,55
2017-09-08T09:18:20.975Z,55
2017-09-08T09:19:01.542Z,55
2017-09-08T09:19:42.154Z,55
2017-09-08T09:20:22.826Z,55
2017-09-08T09:21:03.397Z,55
2017-09-08T09:21:43.981Z,55
2017-09-08T09:22:24.548Z,55
2017-09-08T09:23:05.163Z,55
2017-09-08T09:23:45.748Z,55
2017-09-08T09:24:26.313Z,55
2017-09-08T09:25:06.886Z,55
2017-09-08T09:25:47.442Z,55
2017-09-08T09:26:28.008Z,55
2017-09-08T09:27:08.578Z,55
2017-09-08T09:27:49.167Z,60
2017-09-08T09:28:29.746Z,60
2017-09-08T09:29:11.908Z,60
2017-09-08T09:29:52.473Z,60
2017-09-08T09:30:33.043Z,60
2017-09-08T09:31:15.122Z,65
2017-09-08T09:31:55.731Z,65
2017-09-08T09:32:36.291Z,65
2017-09-08T09:33:16.857Z,65
2017-09-08T09:33:57.415Z,65
2017-09-08T09:34:38.023Z,65
2017-09-08T09:35:18.583Z,70
2017-09-08T09:35:59.171Z,70
2017-09-08T09:36:40.229Z,70
2017-09-08T09:37:21.636Z,70
2017-09-08T09:38:03.034Z,70
2017-09-08T09:38:43.666Z,70
2017-09-08T09:39:24.272Z,70
2017-09-08T09:40:04.817Z,70
2017-09-08T09:40:45.411Z,75
2017-09-08T09:41:25.970Z,75
2017-09-08T09:42:06.611Z,75
2017-09-08T09:42:47.175Z,75
2017-09-08T09:43:27.916Z,75
2017-09-08T09:44:08.639Z,75
2017-09-08T09:44:49.321Z,70
2017-09-08T09:45:30.014Z,70
2017-09-08T09:46:10.574Z,70
2017-09-08T09:46:51.170Z,65
2017-09-08T09:47:31.750Z,65
2017-09-08T09:48:12.472Z,65
2017-09-08T09:48:53.051Z,65
2017-09-08T09:49:33.675Z,65